Hanty-Mansijsk, Russia
Current Conditions -  °F | °C
As of 9:00 PM on Wednesday 26 Nov 2014 (Local Time) from USHH Reporting Station
Blowing Snow Blowing Snow  
Wind Chill: -11°   Ceiling: 1500
Heat Index:   Visibility: 6mi
Dew Point:   Wind: 11mph
Humidity: 78%   Direction: 10°N
Pressure: 29.83"   Gusts: 20mph
Location:  61°N, 69°E
Report Text: USHH 261600Z 01005G09MPS 9000 -SHSN BLSN BKN015CB OVC080M15/M18 Q1010 TEMPO 1000 SHSN BLSN BKN004 RMK QFE754 06////38
Loading
Personal Weather Stations






























Interactive Weather Map New forecast layout! Learn more

10-Day Weather Forecast

Advertisements
Track Severe Weather on mobile